createdAt,value
2018-07-25T00:02:19.824Z,29.8
2018-07-25T00:12:19.069Z,29.8
2018-07-25T00:22:18.314Z,29.8
2018-07-25T00:32:17.557Z,29.8
2018-07-25T00:42:16.799Z,29.8
2018-07-25T00:52:16.046Z,29.9
2018-07-25T01:02:15.288Z,29.9
2018-07-25T01:12:14.538Z,29.9
2018-07-25T01:22:13.778Z,29.9
2018-07-25T01:32:13.025Z,29.9
2018-07-25T01:42:12.265Z,30
2018-07-25T01:52:11.507Z,30
2018-07-25T02:02:10.801Z,30
2018-07-25T02:12:09.996Z,30
2018-07-25T02:22:09.238Z,30.1
2018-07-25T02:32:08.485Z,30.1
2018-07-25T02:42:07.725Z,26.8
2018-07-25T02:52:06.968Z,27.2
2018-07-25T03:02:06.211Z,27.3
2018-07-25T03:12:05.457Z,27.3
2018-07-25T03:22:04.700Z,27.2
2018-07-25T03:32:03.944Z,27.3
2018-07-25T03:42:03.190Z,27.4
2018-07-25T03:52:02.429Z,27.1
2018-07-25T04:02:01.761Z,26.6
2018-07-25T04:12:00.917Z,26.7
2018-07-25T04:22:00.163Z,26.8
2018-07-25T04:31:59.404Z,26.8
2018-07-25T04:41:58.648Z,26.7
2018-07-25T04:51:57.892Z,26.3
2018-07-25T05:01:57.135Z,26.3
2018-07-25T05:11:56.432Z,26.3
2018-07-25T05:21:55.626Z,26.4
2018-07-25T05:31:54.867Z,26.4
2018-07-25T05:41:54.110Z,26.6
2018-07-25T05:51:53.355Z,26.9
2018-07-25T06:01:52.649Z,27.5
2018-07-25T06:11:51.840Z,28.1
2018-07-25T06:21:51.082Z,28.4
2018-07-25T06:31:50.327Z,28.8
2018-07-25T06:41:49.571Z,28.9
2018-07-25T06:51:48.814Z,29.1
2018-07-25T07:01:48.057Z,29.3
2018-07-25T07:11:47.301Z,29.5
2018-07-25T07:21:46.545Z,29.8
2018-07-25T07:31:45.815Z,30.2
2018-07-25T07:41:45.033Z,30.4
2018-07-25T07:51:44.276Z,30.7
2018-07-25T08:01:43.520Z,30.9
2018-07-25T08:11:42.764Z,31.3
2018-07-25T08:21:42.011Z,31.6
2018-07-25T08:31:41.252Z,32.1
2018-07-25T08:41:40.501Z,32.6
2018-07-25T08:51:39.737Z,33
2018-07-25T09:01:38.985Z,33.4
2018-07-25T09:11:38.230Z,33.8
2018-07-25T09:21:37.476Z,34.2
2018-07-25T09:31:36.718Z,34.5
2018-07-25T09:41:35.959Z,34.7
2018-07-25T09:51:35.220Z,34.9
2018-07-25T10:01:34.478Z,35.2
2018-07-25T10:11:33.724Z,35.4
2018-07-25T10:21:32.942Z,35.6
2018-07-25T10:31:32.215Z,35.9
2018-07-25T10:41:31.429Z,36.1
2018-07-25T10:51:30.676Z,36.4
2018-07-25T11:01:29.920Z,36.6
2018-07-25T11:11:29.164Z,36.8
2018-07-25T11:21:28.409Z,37.1
2018-07-25T11:31:27.657Z,37.3
2018-07-25T11:41:26.898Z,37.6
2018-07-25T11:51:26.144Z,37.8
2018-07-25T12:01:25.459Z,38.3
2018-07-25T12:11:24.643Z,38.6
2018-07-25T12:21:23.882Z,38.9
2018-07-25T12:31:23.134Z,39.2
2018-07-25T12:41:22.369Z,39.6
2018-07-25T12:51:21.618Z,39.9
2018-07-25T13:01:20.862Z,40.2
2018-07-25T13:11:20.109Z,40.5
2018-07-25T13:21:19.352Z,40.9
2018-07-25T13:31:18.601Z,41.1
2018-07-25T13:41:17.844Z,41.4
2018-07-25T13:51:17.087Z,41.6
2018-07-25T14:01:16.341Z,41.8
2018-07-25T14:11:15.578Z,41.9
2018-07-25T14:21:14.824Z,42.1
2018-07-25T14:31:14.067Z,42.3
2018-07-25T14:41:13.324Z,42.5
2018-07-25T14:51:12.653Z,42.8
2018-07-25T15:01:11.835Z,42.6
2018-07-25T15:11:11.055Z,42.8
2018-07-25T15:21:10.297Z,42.9
2018-07-25T15:31:09.546Z,42.9
2018-07-25T15:41:08.789Z,42.6
2018-07-25T15:51:08.034Z,40.8
2018-07-25T16:01:07.280Z,36.9
2018-07-25T16:11:06.531Z,34.8
2018-07-25T16:21:05.778Z,35.1
2018-07-25T16:31:05.023Z,35.2
2018-07-25T16:41:04.274Z,35.5
2018-07-25T16:51:03.519Z,35.7
2018-07-25T17:01:02.759Z,35.9
2018-07-25T17:11:02.009Z,36
2018-07-25T17:21:01.249Z,36.1
2018-07-25T17:31:00.494Z,36.1
2018-07-25T17:40:59.803Z,36
2018-07-25T17:50:59.041Z,35.1
2018-07-25T18:00:58.233Z,33.8
2018-07-25T18:10:57.481Z,34.1
2018-07-25T18:20:56.747Z,34.2
2018-07-25T18:30:55.978Z,34.1
2018-07-25T18:40:55.224Z,34.1
2018-07-25T18:50:54.471Z,33.8
2018-07-25T19:00:53.717Z,33.5
2018-07-25T19:10:52.961Z,33.7
2018-07-25T19:20:52.208Z,33.3
2018-07-25T19:30:51.461Z,31.9
2018-07-25T19:40:50.705Z,31.7
2018-07-25T19:50:49.953Z,31.8
2018-07-25T20:00:49.236Z,31
2018-07-25T20:10:48.448Z,31
2018-07-25T20:20:47.696Z,31.1
2018-07-25T20:30:46.942Z,30.5
2018-07-25T20:40:46.240Z,29.9
2018-07-25T20:50:45.435Z,29.7
2018-07-25T21:00:44.739Z,29.8
2018-07-25T21:10:43.932Z,29.8
2018-07-25T21:20:43.171Z,29.9
2018-07-25T21:30:42.421Z,29.9
2018-07-25T21:40:41.667Z,29.9
2018-07-25T21:50:40.904Z,30
2018-07-25T22:00:40.151Z,30
2018-07-25T22:10:39.397Z,30.1
2018-07-25T22:20:38.643Z,30.1
2018-07-25T22:30:37.887Z,30.1
2018-07-25T22:40:37.131Z,30.1
2018-07-25T22:50:36.378Z,30.1
2018-07-25T23:00:35.620Z,30.1
2018-07-25T23:10:34.867Z,30.1
2018-07-25T23:20:34.108Z,30.2
2018-07-25T23:30:33.350Z,30.2
2018-07-25T23:40:32.597Z,30.2
2018-07-25T23:50:31.837Z,30.3
